sensor_id;sensor_type;location;lat;lon;timestamp;pressure;altitude;pressure_sealevel;temperature;humidity
60832;BME280;46665;51.558;-0.448;2023-01-01T00:01:43;99785.84;;;10.33;100.00
60832;BME280;46665;51.558;-0.448;2023-01-01T00:04:27;99787.75;;;10.32;100.00
60832;BME280;46665;51.558;-0.448;2023-01-01T00:07:11;99777.41;;;10.34;100.00
60832;BME280;46665;51.558;-0.448;2023-01-01T00:09:55;99779.59;;;10.32;100.00
60832;BME280;46665;51.558;-0.448;2023-01-01T00:12:58;99783.44;;;10.31;100.00
60832;BME280;46665;51.558;-0.448;2023-01-01T00:15:43;99781.81;;;10.30;100.00
60832;BME280;46665;51.558;-0.448;2023-01-01T00:18:27;99804.59;;;10.34;100.00
60832;BME280;46665;51.558;-0.448;2023-01-01T00:21:12;99792.91;;;10.34;100.00
60832;BME280;46665;51.558;-0.448;2023-01-01T00:23:57;99799.16;;;10.34;100.00
60832;BME280;46665;51.558;-0.448;2023-01-01T00:26:41;99801.06;;;10.34;100.00
60832;BME280;46665;51.558;-0.448;2023-01-01T00:29:25;99806.50;;;10.34;100.00
60832;BME280;46665;51.558;-0.448;2023-01-01T00:32:09;99814.16;;;10.32;100.00
60832;BME280;46665;51.558;-0.448;2023-01-01T00:34:55;99791.00;;;10.34;100.00
60832;BME280;46665;51.558;-0.448;2023-01-01T00:37:39;99808.72;;;10.32;100.00
60832;BME280;46665;51.558;-0.448;2023-01-01T00:40:23;99806.06;;;10.27;100.00
60832;BME280;46665;51.558;-0.448;2023-01-01T00:43:07;99819.47;;;10.23;100.00
60832;BME280;46665;51.558;-0.448;2023-01-01T00:45:51;99811.41;;;10.18;100.00
60832;BME280;46665;51.558;-0.448;2023-01-01T00:48:38;99805.34;;;10.21;100.00
60832;BME280;46665;51.558;-0.448;2023-01-01T00:51:22;99817.63;;;10.18;100.00
60832;BME280;46665;51.558;-0.448;2023-01-01T00:54:06;99828.59;;;10.13;100.00
60832;BME280;46665;51.558;-0.448;2023-01-01T00:56:50;99823.75;;;10.10;100.00
60832;BME280;46665;51.558;-0.448;2023-01-01T00:59:34;99821.84;;;10.11;100.00
60832;BME280;46665;51.558;-0.448;2023-01-01T01:02:18;99832.63;;;10.16;100.00
60832;BME280;46665;51.558;-0.448;2023-01-01T01:05:02;99840.78;;;10.16;100.00
60832;BME280;46665;51.558;-0.448;2023-01-01T01:07:47;99854.66;;;10.14;100.00
60832;BME280;46665;51.558;-0.448;2023-01-01T01:10:31;99861.28;;;10.08;100.00
60832;BME280;46665;51.558;-0.448;2023-01-01T01:13:15;99870.34;;;10.04;100.00
60832;BME280;46665;51.558;-0.448;2023-01-01T01:15:59;99859.19;;;10.05;100.00
60832;BME280;46665;51.558;-0.448;2023-01-01T01:18:44;99860.25;;;10.04;100.00
60832;BME280;46665;51.558;-0.448;2023-01-01T01:21:31;99859.47;;;10.04;100.00
60832;BME280;46665;51.558;-0.448;2023-01-01T01:24:15;99861.47;;;9.98;100.00
60832;BME280;46665;51.558;-0.448;2023-01-01T01:26:59;99884.00;;;9.98;100.00
60832;BME280;46665;51.558;-0.448;2023-01-01T01:29:43;99888.41;;;9.94;100.00
60832;BME280;46665;51.558;-0.448;2023-01-01T01:32:27;99889.81;;;9.92;100.00
60832;BME280;46665;51.558;-0.448;2023-01-01T01:35:13;99883.03;;;9.89;100.00
60832;BME280;46665;51.558;-0.448;2023-01-01T01:37:57;99904.94;;;9.98;100.00
60832;BME280;46665;51.558;-0.448;2023-01-01T01:40:42;99903.38;;;9.92;100.00
60832;BME280;46665;51.558;-0.448;2023-01-01T01:46:20;99925.44;;;9.90;100.00
60832;BME280;46665;51.558;-0.448;2023-01-01T01:49:46;99923.81;;;9.89;100.00
60832;BME280;46665;51.558;-0.448;2023-01-01T01:52:23;99928.44;;;9.89;100.00
60832;BME280;46665;51.558;-0.448;2023-01-01T01:55:08;99925.28;;;9.82;100.00
60832;BME280;46665;51.558;-0.448;2023-01-01T01:57:53;99937.84;;;9.77;100.00
60832;BME280;46665;51.558;-0.448;2023-01-01T02:00:37;99942.47;;;9.77;100.00
60832;BME280;46665;51.558;-0.448;2023-01-01T02:06:29;99949.94;;;9.66;100.00
60832;BME280;46665;51.558;-0.448;2023-01-01T02:09:13;99949.94;;;9.66;100.00
60832;BME280;46665;51.558;-0.448;2023-01-01T02:11:58;99951.06;;;9.65;100.00
60832;BME280;46665;51.558;-0.448;2023-01-01T02:14:42;99963.59;;;9.61;100.00
60832;BME280;46665;51.558;-0.448;2023-01-01T02:17:43;99967.69;;;9.59;100.00
60832;BME280;46665;51.558;-0.448;2023-01-01T02:29:31;99977.56;;;9.49;100.00
60832;BME280;46665;51.558;-0.448;2023-01-01T02:32:22;99985.22;;;9.47;100.00
60832;BME280;46665;51.558;-0.448;2023-01-01T02:35:23;99993.84;;;9.54;100.00
60832;BME280;46665;51.558;-0.448;2023-01-01T02:38:42;100003.94;;;9.49;100.00
60832;BME280;46665;51.558;-0.448;2023-01-01T02:41:43;99999.03;;;9.51;100.00
60832;BME280;46665;51.558;-0.448;2023-01-01T02:44:29;99997.13;;;9.51;100.00
60832;BME280;46665;51.558;-0.448;2023-01-01T02:47:16;100000.69;;;9.47;100.00
60832;BME280;46665;51.558;-0.448;2023-01-01T02:50:13;100002.66;;;9.41;100.00
60832;BME280;46665;51.558;-0.448;2023-01-01T02:56:13;100011.41;;;9.38;100.00
60832;BME280;46665;51.558;-0.448;2023-01-01T02:59:33;100019.81;;;9.37;100.00
60832;BME280;46665;51.558;-0.448;2023-01-01T03:06:41;100024.75;;;9.35;100.00
60832;BME280;46665;51.558;-0.448;2023-01-01T03:09:48;100008.50;;;9.29;100.00
60832;BME280;46665;51.558;-0.448;2023-01-01T03:12:44;100016.13;;;9.27;100.00
60832;BME280;46665;51.558;-0.448;2023-01-01T03:15:59;100019.13;;;9.26;100.00
60832;BME280;46665;51.558;-0.448;2023-01-01T03:21:29;100013.53;;;9.17;100.00
60832;BME280;46665;51.558;-0.448;2023-01-01T03:24:19;100013.00;;;9.15;100.00
60832;BME280;46665;51.558;-0.448;2023-01-01T03:27:10;100012.47;;;9.13;100.00
60832;BME280;46665;51.558;-0.448;2023-01-01T03:29:59;100028.16;;;9.16;100.00
60832;BME280;46665;51.558;-0.448;2023-01-01T03:32:58;100034.19;;;9.13;100.00
60832;BME280;46665;51.558;-0.448;2023-01-01T03:41:46;100025.56;;;9.06;100.00
60832;BME280;46665;51.558;-0.448;2023-01-01T03:44:58;100041.63;;;9.02;100.00
60832;BME280;46665;51.558;-0.448;2023-01-01T03:47:44;100043.78;;;9.00;100.00
60832;BME280;46665;51.558;-0.448;2023-01-01T03:50:39;100046.25;;;9.02;100.00
60832;BME280;46665;51.558;-0.448;2023-01-01T03:53:38;100049.28;;;8.95;100.00
60832;BME280;46665;51.558;-0.448;2023-01-01T03:56:38;100053.63;;;8.91;100.00
60832;BME280;46665;51.558;-0.448;2023-01-01T03:59:39;100059.91;;;8.92;100.00
60832;BME280;46665;51.558;-0.448;2023-01-01T04:02:44;100064.97;;;8.98;100.00
60832;BME280;46665;51.558;-0.448;2023-01-01T04:05:32;100076.97;;;8.92;100.00
60832;BME280;46665;51.558;-0.448;2023-01-01T04:08:19;100079.13;;;8.95;100.00
60832;BME280;46665;51.558;-0.448;2023-01-01T04:11:16;100080.50;;;8.93;100.00
60832;BME280;46665;51.558;-0.448;2023-01-01T04:17:14;100094.34;;;8.91;100.00
60832;BME280;46665;51.558;-0.448;2023-01-01T04:19:58;100093.28;;;8.87;100.00
60832;BME280;46665;51.558;-0.448;2023-01-01T04:22:42;100095.22;;;8.86;100.00
60832;BME280;46665;51.558;-0.448;2023-01-01T04:25:27;100097.91;;;8.86;100.00
60832;BME280;46665;51.558;-0.448;2023-01-01T04:28:11;100103.88;;;8.83;100.00
60832;BME280;46665;51.558;-0.448;2023-01-01T04:30:55;100093.25;;;8.92;100.00
60832;BME280;46665;51.558;-0.448;2023-01-01T04:33:39;100094.34;;;8.91;100.00
60832;BME280;46665;51.558;-0.448;2023-01-01T04:36:23;100101.66;;;8.90;100.00
60832;BME280;46665;51.558;-0.448;2023-01-01T04:39:07;100109.84;;;8.85;100.00
60832;BME280;46665;51.558;-0.448;2023-01-01T04:41:51;100109.84;;;8.85;100.00
60832;BME280;46665;51.558;-0.448;2023-01-01T04:44:35;100110.41;;;8.82;100.00
60832;BME280;46665;51.558;-0.448;2023-01-01T04:47:19;100113.63;;;8.89;100.00
60832;BME280;46665;51.558;-0.448;2023-01-01T04:50:04;100119.28;;;8.93;100.00
60832;BME280;46665;51.558;-0.448;2023-01-01T04:52:47;100125.53;;;8.94;100.00
60832;BME280;46665;51.558;-0.448;2023-01-01T04:55:33;100121.72;;;8.95;100.00
60832;BME280;46665;51.558;-0.448;2023-01-01T04:58:17;100127.16;;;8.95;100.00
60832;BME280;46665;51.558;-0.448;2023-01-01T05:01:02;100135.56;;;8.93;100.00
60832;BME280;46665;51.558;-0.448;2023-01-01T05:03:47;100131.25;;;8.92;100.00
60832;BME280;46665;51.558;-0.448;2023-01-01T05:06:31;100129.91;;;8.89;100.00
60832;BME280;46665;51.558;-0.448;2023-01-01T05:09:15;100132.34;;;8.86;100.00
60832;BME280;46665;51.558;-0.448;2023-01-01T05:11:59;100139.38;;;8.92;100.00
60832;BME280;46665;51.558;-0.448;2023-01-01T05:14:43;100143.44;;;8.95;100.00
60832;BME280;46665;51.558;-0.448;2023-01-01T05:17:27;100150.78;;;8.94;100.00
60832;BME280;46665;51.558;-0.448;2023-01-01T05:20:11;100151.53;;;9.00;100.00
60832;BME280;46665;51.558;-0.448;2023-01-01T05:22:55;100149.38;;;9.02;100.00
60832;BME280;46665;51.558;-0.448;2023-01-01T05:25:39;100151.53;;;9.00;100.00
60832;BME280;46665;51.558;-0.448;2023-01-01T05:28:23;100142.81;;;9.03;100.00
60832;BME280;46665;51.558;-0.448;2023-01-01T05:31:11;100138.47;;;9.07;100.00
60832;BME280;46665;51.558;-0.448;2023-01-01T05:33:56;100150.09;;;9.13;100.00
60832;BME280;46665;51.558;-0.448;2023-01-01T05:36:40;100163.38;;;9.14;100.00
60832;BME280;46665;51.558;-0.448;2023-01-01T05:39:24;100166.91;;;9.15;100.00
60832;BME280;46665;51.558;-0.448;2023-01-01T05:42:08;100165.56;;;9.12;100.00
60832;BME280;46665;51.558;-0.448;2023-01-01T05:44:53;100161.47;;;9.15;100.00
60832;BME280;46665;51.558;-0.448;2023-01-01T05:47:37;100159.03;;;9.13;100.00
60832;BME280;46665;51.558;-0.448;2023-01-01T05:50:21;100164.16;;;9.20;100.00
60832;BME280;46665;51.558;-0.448;2023-01-01T05:53:05;100167.69;;;9.20;100.00
60832;BME280;46665;51.558;-0.448;2023-01-01T05:55:52;100179.63;;;9.19;100.00
60832;BME280;46665;51.558;-0.448;2023-01-01T05:58:36;100175.84;;;9.15;100.00
60832;BME280;46665;51.558;-0.448;2023-01-01T06:01:31;100175.84;;;9.15;100.00
60832;BME280;46665;51.558;-0.448;2023-01-01T06:04:16;100194.81;;;9.20;100.00
60832;BME280;46665;51.558;-0.448;2023-01-01T06:07:00;100188.28;;;9.21;100.00
60832;BME280;46665;51.558;-0.448;2023-01-01T06:09:44;100205.38;;;9.27;100.00
60832;BME280;46665;51.558;-0.448;2023-01-01T06:12:28;100197.50;;;9.25;100.00
60832;BME280;46665;51.558;-0.448;2023-01-01T06:15:11;100210.31;;;9.20;100.00
60832;BME280;46665;51.558;-0.448;2023-01-01T06:17:57;100216.31;;;9.17;100.00
60832;BME280;46665;51.558;-0.448;2023-01-01T06:20:41;100210.31;;;9.20;100.00
60832;BME280;46665;51.558;-0.448;2023-01-01T06:23:25;100215.47;;;9.16;100.00
60832;BME280;46665;51.558;-0.448;2023-01-01T06:26:16;100213.09;;;9.09;100.00
60832;BME280;46665;51.558;-0.448;2023-01-01T06:29:01;100218.25;;;9.06;100.00
60832;BME280;46665;51.558;-0.448;2023-01-01T06:31:45;100228.31;;;9.05;100.00
60832;BME280;46665;51.558;-0.448;2023-01-01T06:34:29;100220.72;;;9.02;100.00
60832;BME280;46665;51.558;-0.448;2023-01-01T06:37:13;100222.63;;;9.02;100.00
60832;BME280;46665;51.558;-0.448;2023-01-01T06:39:57;100227.75;;;9.03;100.00
60832;BME280;46665;51.558;-0.448;2023-01-01T06:42:41;100228.59;;;8.99;100.00
60832;BME280;46665;51.558;-0.448;2023-01-01T06:45:25;100242.16;;;8.99;100.00
60832;BME280;46665;51.558;-0.448;2023-01-01T06:48:09;100244.63;;;9.00;100.00
60832;BME280;46665;51.558;-0.448;2023-01-01T06:50:53;100244.63;;;9.00;100.00
60832;BME280;46665;51.558;-0.448;2023-01-01T06:53:37;100261.97;;;9.04;100.00
60832;BME280;46665;51.558;-0.448;2023-01-01T06:56:21;100276.59;;;9.08;100.00
60832;BME280;46665;51.558;-0.448;2023-01-01T06:59:05;100263.06;;;9.03;100.00
60832;BME280;46665;51.558;-0.448;2023-01-01T07:01:49;100264.38;;;9.06;100.00
60832;BME280;46665;51.558;-0.448;2023-01-01T07:04:33;100262.19;;;9.13;100.00
60832;BME280;46665;51.558;-0.448;2023-01-01T07:07:17;100268.41;;;9.14;100.00
60832;BME280;46665;51.558;-0.448;2023-01-01T07:10:01;100277.94;;;9.11;100.00
60832;BME280;46665;51.558;-0.448;2023-01-01T07:12:45;100296.94;;;9.11;100.00
60832;BME280;46665;51.558;-0.448;2023-01-01T07:15:29;100287.44;;;9.08;100.00
60832;BME280;46665;51.558;-0.448;2023-01-01T07:18:14;100294.50;;;9.15;100.00
60832;BME280;46665;51.558;-0.448;2023-01-01T07:21:00;100286.38;;;9.09;100.00
60832;BME280;46665;51.558;-0.448;2023-01-01T07:23:45;100289.34;;;9.08;100.00
60832;BME280;46665;51.558;-0.448;2023-01-01T07:26:30;100295.34;;;9.05;100.00
60832;BME280;46665;51.558;-0.448;2023-01-01T07:29:15;100300.78;;;9.05;100.00
60832;BME280;46665;51.558;-0.448;2023-01-01T07:32:00;100302.13;;;9.07;100.00
60832;BME280;46665;51.558;-0.448;2023-01-01T07:34:43;100309.47;;;9.07;100.00
60832;BME280;46665;51.558;-0.448;2023-01-01T07:37:27;100310.00;;;9.04;100.00
60832;BME280;46665;51.558;-0.448;2023-01-01T07:40:11;100303.25;;;8.96;100.00
60832;BME280;46665;51.558;-0.448;2023-01-01T07:42:58;100293.50;;;8.90;100.00
60832;BME280;46665;51.558;-0.448;2023-01-01T07:45:42;100302.50;;;8.85;100.00
60832;BME280;46665;51.558;-0.448;2023-01-01T07:48:27;100309.00;;;8.84;100.00
60832;BME280;46665;51.558;-0.448;2023-01-01T07:51:11;100316.03;;;8.90;100.00
60832;BME280;46665;51.558;-0.448;2023-01-01T07:53:54;100324.44;;;8.94;100.00
60832;BME280;46665;51.558;-0.448;2023-01-01T07:56:38;100323.31;;;9.00;100.00
60832;BME280;46665;51.558;-0.448;2023-01-01T07:59:22;100326.84;;;9.01;100.00
60832;BME280;46665;51.558;-0.448;2023-01-01T08:02:10;100324.94;;;9.01;100.00
60832;BME280;46665;51.558;-0.448;2023-01-01T08:04:54;100322.50;;;9.05;100.00
60832;BME280;46665;51.558;-0.448;2023-01-01T08:07:38;100321.66;;;9.09;100.00
60832;BME280;46665;51.558;-0.448;2023-01-01T08:10:22;100327.03;;;9.20;100.00
60832;BME280;46665;51.558;-0.448;2023-01-01T08:13:07;100363.63;;;9.32;100.00
60832;BME280;46665;51.558;-0.448;2023-01-01T08:15:51;100360.09;;;9.32;100.00
60832;BME280;46665;51.558;-0.448;2023-01-01T08:18:35;100365.53;;;9.32;100.00
60832;BME280;46665;51.558;-0.448;2023-01-01T08:21:19;100360.38;;;9.30;100.00
60832;BME280;46665;51.558;-0.448;2023-01-01T08:24:03;100343.88;;;9.17;100.00
60832;BME280;46665;51.558;-0.448;2023-01-01T08:26:48;100350.19;;;9.02;100.00
60832;BME280;46665;51.558;-0.448;2023-01-01T08:29:33;100372.00;;;8.76;100.00
60832;BME280;46665;51.558;-0.448;2023-01-01T08:32:16;100383.97;;;8.39;100.00
60832;BME280;46665;51.558;-0.448;2023-01-01T08:35:00;100379.09;;;7.95;100.00
60832;BME280;46665;51.558;-0.448;2023-01-01T08:37:44;100389.59;;;7.71;100.00
60832;BME280;46665;51.558;-0.448;2023-01-01T08:40:28;100389.31;;;7.52;100.00
60832;BME280;46665;51.558;-0.448;2023-01-01T08:43:12;100374.38;;;7.40;100.00
60832;BME280;46665;51.558;-0.448;2023-01-01T08:45:56;100372.16;;;7.31;100.00
60832;BME280;46665;51.558;-0.448;2023-01-01T08:48:40;100370.53;;;7.20;100.00
60832;BME280;46665;51.558;-0.448;2023-01-01T08:51:24;100367.00;;;7.20;100.00
60832;BME280;46665;51.558;-0.448;2023-01-01T08:54:08;100371.63;;;7.19;100.00
60832;BME280;46665;51.558;-0.448;2023-01-01T08:56:52;100369.72;;;7.25;100.00
60832;BME280;46665;51.558;-0.448;2023-01-01T08:59:36;100362.97;;;7.27;100.00
60832;BME280;46665;51.558;-0.448;2023-01-01T09:02:19;100381.66;;;7.39;100.00
60832;BME280;46665;51.558;-0.448;2023-01-01T09:05:03;100352.44;;;7.46;100.00
60832;BME280;46665;51.558;-0.448;2023-01-01T09:07:48;100353.00;;;7.53;100.00
60832;BME280;46665;51.558;-0.448;2023-01-01T09:10:32;100354.13;;;7.63;100.00
60832;BME280;46665;51.558;-0.448;2023-01-01T09:13:19;100354.13;;;7.68;100.00
60832;BME280;46665;51.558;-0.448;2023-01-01T09:16:03;100363.88;;;7.79;100.00
60832;BME280;46665;51.558;-0.448;2023-01-01T09:18:48;100371.22;;;7.89;100.00
60832;BME280;46665;51.558;-0.448;2023-01-01T09:21:32;100384.75;;;7.94;100.00
60832;BME280;46665;51.558;-0.448;2023-01-01T09:24:16;100404.81;;;7.98;100.00
60832;BME280;46665;51.558;-0.448;2023-01-01T09:27:00;100390.44;;;7.97;100.00
60832;BME280;46665;51.558;-0.448;2023-01-01T09:29:44;100405.09;;;7.91;100.00
60832;BME280;46665;51.558;-0.448;2023-01-01T09:32:28;100403.97;;;7.82;100.00
60832;BME280;46665;51.558;-0.448;2023-01-01T09:35:12;100418.34;;;7.77;100.00
60832;BME280;46665;51.558;-0.448;2023-01-01T09:37:56;100407.44;;;7.57;100.00
60832;BME280;46665;51.558;-0.448;2023-01-01T09:46:34;100441.25;;;7.44;100.00
60832;BME280;46665;51.558;-0.448;2023-01-01T09:49:31;100450.97;;;7.35;100.00
60832;BME280;46665;51.558;-0.448;2023-01-01T09:52:19;100453.91;;;7.28;100.00
60832;BME280;46665;51.558;-0.448;2023-01-01T09:55:12;100469.34;;;7.28;100.00
60832;BME280;46665;51.558;-0.448;2023-01-01T09:57:57;100476.34;;;7.24;100.00
60832;BME280;46665;51.558;-0.448;2023-01-01T10:00:44;100463.38;;;7.26;100.00
60832;BME280;46665;51.558;-0.448;2023-01-01T10:06:39;100458.56;;;7.38;100.00
60832;BME280;46665;51.558;-0.448;2023-01-01T10:09:50;100448.84;;;7.42;100.00
60832;BME280;46665;51.558;-0.448;2023-01-01T10:12:51;100436.13;;;7.48;100.00
60832;BME280;46665;51.558;-0.448;2023-01-01T10:15:49;100439.13;;;7.56;100.00
60832;BME280;46665;51.558;-0.448;2023-01-01T10:18:37;100452.41;;;7.63;100.00
60832;BME280;46665;51.558;-0.448;2023-01-01T10:21:31;100448.94;;;7.73;100.00
60832;BME280;46665;51.558;-0.448;2023-01-01T10:24:36;100443.25;;;7.85;100.00
60832;BME280;46665;51.558;-0.448;2023-01-01T10:28:12;100448.69;;;7.95;100.00
60832;BME280;46665;51.558;-0.448;2023-01-01T10:30:35;100454.13;;;8.05;100.00
60832;BME280;46665;51.558;-0.448;2023-01-01T10:33:20;100445.75;;;8.12;100.00
60832;BME280;46665;51.558;-0.448;2023-01-01T10:36:06;100452.53;;;8.19;100.00
60832;BME280;46665;51.558;-0.448;2023-01-01T10:38:54;100452.81;;;8.23;100.00
60832;BME280;46665;51.558;-0.448;2023-01-01T10:41:43;100452.81;;;8.33;100.00
60832;BME280;46665;51.558;-0.448;2023-01-01T10:44:31;100449.56;;;8.36;100.00
60832;BME280;46665;51.558;-0.448;2023-01-01T10:47:23;100441.97;;;8.38;100.00
60832;BME280;46665;51.558;-0.448;2023-01-01T10:50:08;100449.84;;;8.45;100.00
60832;BME280;46665;51.558;-0.448;2023-01-01T10:52:55;100455.56;;;8.43;100.00
60832;BME280;46665;51.558;-0.448;2023-01-01T10:55:39;100465.06;;;8.51;100.00
60832;BME280;46665;51.558;-0.448;2023-01-01T10:58:37;100466.41;;;8.54;100.00
60832;BME280;46665;51.558;-0.448;2023-01-01T11:01:24;100459.63;;;8.56;100.00
60832;BME280;46665;51.558;-0.448;2023-01-01T11:04:19;100460.44;;;8.57;100.00
60832;BME280;46665;51.558;-0.448;2023-01-01T11:07:05;100459.34;;;8.63;100.00
60832;BME280;46665;51.558;-0.448;2023-01-01T11:09:50;100457.47;;;8.63;100.00
60832;BME280;46665;51.558;-0.448;2023-01-01T11:12:36;100447.41;;;8.69;100.00
60832;BME280;46665;51.558;-0.448;2023-01-01T11:18:30;100448.47;;;8.83;100.00
60832;BME280;46665;51.558;-0.448;2023-01-01T11:21:21;100434.88;;;8.88;100.00
60832;BME280;46665;51.558;-0.448;2023-01-01T11:24:17;100435.44;;;8.90;100.00
60832;BME280;46665;51.558;-0.448;2023-01-01T11:27:21;100415.88;;;8.94;100.00
60832;BME280;46665;51.558;-0.448;2023-01-01T11:33:03;100408.00;;;8.97;100.00
60832;BME280;46665;51.558;-0.448;2023-01-01T11:35:49;100418.88;;;8.97;100.00
60832;BME280;46665;51.558;-0.448;2023-01-01T11:38:35;100422.38;;;8.98;100.00
60832;BME280;46665;51.558;-0.448;2023-01-01T11:41:19;100431.63;;;8.97;100.00
60832;BME280;46665;51.558;-0.448;2023-01-01T11:44:04;100419.66;;;9.03;100.00
60832;BME280;46665;51.558;-0.448;2023-01-01T11:46:48;100431.06;;;9.00;100.00
60832;BME280;46665;51.558;-0.448;2023-01-01T11:49:33;100411.00;;;8.96;100.00
60832;BME280;46665;51.558;-0.448;2023-01-01T11:52:39;100414.25;;;8.98;100.00
60832;BME280;46665;51.558;-0.448;2023-01-01T11:55:44;100408.81;;;8.98;100.00
60832;BME280;46665;51.558;-0.448;2023-01-01T12:01:37;100418.56;;;9.09;100.00
60832;BME280;46665;51.558;-0.448;2023-01-01T12:04:31;100421.78;;;9.11;100.00
60832;BME280;46665;51.558;-0.448;2023-01-01T12:07:29;100427.50;;;9.15;100.00
60832;BME280;46665;51.558;-0.448;2023-01-01T12:10:24;100435.66;;;9.15;100.00
60832;BME280;46665;51.558;-0.448;2023-01-01T12:13:29;100432.63;;;9.16;100.00
60832;BME280;46665;51.558;-0.448;2023-01-01T12:16:22;100434.28;;;9.17;100.00
60832;BME280;46665;51.558;-0.448;2023-01-01T12:19:14;100428.84;;;9.17;100.00
60832;BME280;46665;51.558;-0.448;2023-01-01T12:22:02;100431.00;;;9.20;100.00
60832;BME280;46665;51.558;-0.448;2023-01-01T12:24:47;100422.06;;;9.20;100.00
60832;BME280;46665;51.558;-0.448;2023-01-01T12:27:48;100431.53;;;9.22;100.00
60832;BME280;46665;51.558;-0.448;2023-01-01T12:30:47;100427.16;;;9.26;100.00
60832;BME280;46665;51.558;-0.448;2023-01-01T12:40:05;100411.97;;;9.25;100.00
60832;BME280;46665;51.558;-0.448;2023-01-01T12:49:22;100415.22;;;9.32;100.00
60832;BME280;46665;51.558;-0.448;2023-01-01T12:58:21;100409.47;;;9.39;100.00
60832;BME280;46665;51.558;-0.448;2023-01-01T13:01:45;100402.69;;;9.37;100.00
60832;BME280;46665;51.558;-0.448;2023-01-01T13:04:30;100425.53;;;9.30;100.00
60832;BME280;46665;51.558;-0.448;2023-01-01T13:07:22;100420.09;;;9.36;100.00
60832;BME280;46665;51.558;-0.448;2023-01-01T13:10:31;100416.59;;;9.30;100.00
60832;BME280;46665;51.558;-0.448;2023-01-01T13:13:17;100412.50;;;9.32;100.00
60832;BME280;46665;51.558;-0.448;2023-01-01T13:16:02;100410.84;;;9.37;100.00
60832;BME280;46665;51.558;-0.448;2023-01-01T13:18:48;100409.25;;;9.30;100.00
60832;BME280;46665;51.558;-0.448;2023-01-01T13:21:35;100399.16;;;9.41;100.00
60832;BME280;46665;51.558;-0.448;2023-01-01T13:24:22;100405.13;;;9.43;100.00
60832;BME280;46665;51.558;-0.448;2023-01-01T13:27:08;100386.13;;;9.38;100.00
60832;BME280;46665;51.558;-0.448;2023-01-01T13:29:53;100400.53;;;9.33;100.00
60832;BME280;46665;51.558;-0.448;2023-01-01T13:33:09;100407.59;;;9.40;100.00
60832;BME280;46665;51.558;-0.448;2023-01-01T13:38:56;100403.75;;;9.46;100.00
60832;BME280;46665;51.558;-0.448;2023-01-01T13:41:45;100403.97;;;9.54;100.00
60832;BME280;46665;51.558;-0.448;2023-01-01T13:44:29;100398.84;;;9.48;100.00
60832;BME280;46665;51.558;-0.448;2023-01-01T13:47:49;100393.72;;;9.41;100.00
60832;BME280;46665;51.558;-0.448;2023-01-01T13:50:49;100389.63;;;9.44;100.00
60832;BME280;46665;51.558;-0.448;2023-01-01T13:54:17;100374.41;;;9.48;100.00
60832;BME280;46665;51.558;-0.448;2023-01-01T14:03:40;100378.75;;;9.44;100.00
60832;BME280;46665;51.558;-0.448;2023-01-01T14:06:35;100390.69;;;9.48;100.00
60832;BME280;46665;51.558;-0.448;2023-01-01T14:09:22;100386.94;;;9.39;100.00
60832;BME280;46665;51.558;-0.448;2023-01-01T14:12:15;100380.41;;;9.45;100.00
60832;BME280;46665;51.558;-0.448;2023-01-01T14:15:24;100377.16;;;9.43;100.00
60832;BME280;46665;51.558;-0.448;2023-01-01T14:18:14;100373.06;;;9.45;100.00
60832;BME280;46665;51.558;-0.448;2023-01-01T14:20:59;100373.63;;;9.42;100.00
60832;BME280;46665;51.558;-0.448;2023-01-01T14:23:56;100369.56;;;9.40;100.00
60832;BME280;46665;51.558;-0.448;2023-01-01T14:26:42;100361.38;;;9.45;100.00
60832;BME280;46665;51.558;-0.448;2023-01-01T14:29:28;100365.69;;;9.51;100.00
60832;BME280;46665;51.558;-0.448;2023-01-01T14:32:20;100361.66;;;9.43;100.00
60832;BME280;46665;51.558;-0.448;2023-01-01T14:35:13;100358.91;;;9.48;100.00
60832;BME280;46665;51.558;-0.448;2023-01-01T14:38:15;100348.31;;;9.47;100.00
60832;BME280;46665;51.558;-0.448;2023-01-01T14:44:18;100350.47;;;9.55;100.00
60832;BME280;46665;51.558;-0.448;2023-01-01T14:47:00;100334.19;;;9.50;100.00
60832;BME280;46665;51.558;-0.448;2023-01-01T14:49:46;100349.66;;;9.49;100.00
60832;BME280;46665;51.558;-0.448;2023-01-01T14:52:32;100347.22;;;9.53;100.00
60832;BME280;46665;51.558;-0.448;2023-01-01T14:55:17;100347.47;;;9.51;100.00
60832;BME280;46665;51.558;-0.448;2023-01-01T14:58:02;100346.66;;;9.56;100.00
60832;BME280;46665;51.558;-0.448;2023-01-01T15:00:46;100343.94;;;9.56;100.00
60832;BME280;46665;51.558;-0.448;2023-01-01T15:03:31;100340.59;;;9.64;100.00
60832;BME280;46665;51.558;-0.448;2023-01-01T15:06:16;100351.47;;;9.64;100.00
60832;BME280;46665;51.558;-0.448;2023-01-01T15:09:00;100345.81;;;9.61;100.00
60832;BME280;46665;51.558;-0.448;2023-01-01T15:11:44;100350.69;;;9.59;100.00
60832;BME280;46665;51.558;-0.448;2023-01-01T15:17:23;100353.19;;;9.55;100.00
60832;BME280;46665;51.558;-0.448;2023-01-01T15:23:02;100354.22;;;9.59;100.00
60832;BME280;46665;51.558;-0.448;2023-01-01T15:25:46;100345.84;;;9.55;100.00
60832;BME280;46665;51.558;-0.448;2023-01-01T15:28:30;100342.81;;;9.62;100.00
60832;BME280;46665;51.558;-0.448;2023-01-01T15:31:14;100342.28;;;9.60;100.00
60832;BME280;46665;51.558;-0.448;2023-01-01T15:33:58;100345.00;;;9.60;100.00
60832;BME280;46665;51.558;-0.448;2023-01-01T15:36:42;100345.53;;;9.62;100.00
60832;BME280;46665;51.558;-0.448;2023-01-01T15:39:28;100349.31;;;9.61;100.00
60832;BME280;46665;51.558;-0.448;2023-01-01T15:42:30;100355.53;;;9.67;100.00
60832;BME280;46665;51.558;-0.448;2023-01-01T15:54:01;100343.09;;;9.61;100.00
60832;BME280;46665;51.558;-0.448;2023-01-01T15:56:43;100348.56;;;9.55;100.00
60832;BME280;46665;51.558;-0.448;2023-01-01T15:59:32;100348.75;;;9.64;100.00
60832;BME280;46665;51.558;-0.448;2023-01-01T16:02:29;100347.41;;;9.62;100.00
60832;BME280;46665;51.558;-0.448;2023-01-01T16:05:15;100335.22;;;9.59;100.00
60832;BME280;46665;51.558;-0.448;2023-01-01T16:08:03;100324.59;;;9.63;100.00